Time;durP1;ratioP1;P1;durP2;ratioP2;P2;SDS_P1;SDS_P2;PMS_P1;PMS_P2;Temp;Humidity;BMP_temperature;BMP_pressure;BME280_temperature;BME280_humidity;BME280_pressure;Samples;Min_cycle;Max_cycle;Signal;HPM_P1;HPM_P2
2022/03/23 00:01:27;;;;;;;9.02;6.57;;;18.70;29.50;;;;;;5168060;27;46953;-15
2022/03/23 00:03:54;;;;;;;7.93;6.22;;;18.70;29.50;;;;;;5168516;27;49080;-14
2022/03/23 00:06:22;;;;;;;11.80;6.53;;;18.70;29.50;;;;;;5168428;27;46841;-14
2022/03/23 00:08:50;;;;;;;11.65;6.68;;;18.60;29.50;;;;;;5168382;27;46860;-14
2022/03/23 00:11:17;;;;;;;10.07;6.28;;;18.70;29.60;;;;;;5168583;27;46924;-14
2022/03/23 00:13:44;;;;;;;13.50;6.28;;;18.60;29.50;;;;;;5167863;27;47050;-15
2022/03/23 00:16:10;;;;;;;8.00;5.72;;;18.60;29.60;;;;;;5168322;27;46954;-14
2022/03/23 00:18:37;;;;;;;8.73;6.45;;;18.60;29.60;;;;;;5168321;27;46781;-15
2022/03/23 00:21:04;;;;;;;9.15;6.28;;;18.60;29.60;;;;;;5168480;27;47275;-14
2022/03/23 00:23:31;;;;;;;9.77;6.57;;;18.60;29.60;;;;;;5167974;27;47844;-14
2022/03/23 00:25:59;;;;;;;9.45;6.57;;;18.60;29.60;;;;;;5168378;27;46953;-14
2022/03/23 00:28:26;;;;;;;7.90;6.32;;;18.60;29.70;;;;;;5168266;27;46841;-15
2022/03/23 00:30:53;;;;;;;10.07;6.43;;;18.60;29.70;;;;;;5168639;27;46866;-14
2022/03/23 00:33:21;;;;;;;9.95;5.70;;;18.50;29.70;;;;;;5167919;27;49043;-14
2022/03/23 00:35:48;;;;;;;8.30;5.82;;;18.50;29.70;;;;;;5168071;27;46981;-15
2022/03/23 00:38:15;;;;;;;7.65;5.68;;;18.50;29.70;;;;;;5167958;27;46922;-15
2022/03/23 00:40:43;;;;;;;9.85;6.40;;;18.50;29.80;;;;;;5168272;27;46979;-14
2022/03/23 00:43:11;;;;;;;9.75;6.10;;;18.50;29.80;;;;;;5167954;27;49036;-14
2022/03/23 00:45:38;;;;;;;8.00;6.05;;;18.40;29.70;;;;;;5168164;27;47083;-14
2022/03/23 00:48:05;;;;;;;9.73;6.20;;;18.50;29.80;;;;;;5168160;27;46843;-15
2022/03/23 00:50:33;;;;;;;7.55;5.93;;;18.50;29.80;;;;;;5168324;27;46891;-15
2022/03/23 00:53:00;;;;;;;8.93;6.18;;;18.40;29.80;;;;;;5167687;27;48235;-15
2022/03/23 00:55:26;;;;;;;7.25;5.43;;;18.40;29.80;;;;;;5168221;27;47148;-15
2022/03/23 00:57:53;;;;;;;9.07;6.45;;;18.40;29.80;;;;;;5167763;27;46949;-16
2022/03/23 01:00:22;;;;;;;9.60;5.90;;;18.40;29.80;;;;;;5167960;27;46960;-15
2022/03/23 01:02:49;;;;;;;7.43;5.57;;;18.40;29.80;;;;;;5167885;27;48983;-14
2022/03/23 01:05:16;;;;;;;9.02;5.63;;;18.40;29.80;;;;;;5167570;27;46757;-14
2022/03/23 01:07:43;;;;;;;6.25;5.35;;;18.40;29.90;;;;;;5167956;27;46895;-15
2022/03/23 01:10:11;;;;;;;7.38;5.47;;;18.40;29.90;;;;;;5167916;27;46903;-15
2022/03/23 01:12:38;;;;;;;6.93;5.40;;;18.40;29.90;;;;;;5168599;27;48079;-15
2022/03/23 01:15:06;;;;;;;6.75;5.35;;;18.40;29.90;;;;;;5171522;27;47239;-15
2022/03/23 01:17:34;;;;;;;6.65;5.40;;;18.30;29.90;;;;;;5171208;27;46987;-14
2022/03/23 01:20:01;;;;;;;6.43;5.43;;;18.30;29.90;;;;;;5171435;27;47319;-14
2022/03/23 01:22:27;;;;;;;7.35;5.32;;;18.30;29.90;;;;;;5170802;27;48125;-14
2022/03/23 01:24:54;;;;;;;8.25;5.95;;;18.30;29.90;;;;;;5170966;27;46907;-15
2022/03/23 01:27:21;;;;;;;7.63;5.45;;;18.30;30.00;;;;;;5171102;27;47030;-14
2022/03/23 01:29:47;;;;;;;5.57;4.97;;;18.30;30.00;;;;;;5171546;27;46857;-15
2022/03/23 01:32:14;;;;;;;8.35;5.25;;;18.30;30.00;;;;;;5171016;27;48242;-15
2022/03/23 01:34:42;;;;;;;7.00;4.95;;;18.30;30.00;;;;;;5170952;27;47431;-14
2022/03/23 01:37:09;;;;;;;6.47;4.90;;;18.30;30.00;;;;;;5171189;27;46741;-14
2022/03/23 01:39:36;;;;;;;7.72;5.70;;;18.30;30.00;;;;;;5171158;27;47081;-14
2022/03/23 01:42:03;;;;;;;5.93;5.32;;;18.30;30.00;;;;;;5171003;27;48139;-14
2022/03/23 01:44:31;;;;;;;6.45;4.80;;;18.20;30.00;;;;;;5170927;27;46992;-15
2022/03/23 01:47:01;;;;;;;7.90;4.80;;;18.20;30.00;;;;;;5171018;27;46886;-14
2022/03/23 01:49:28;;;;;;;7.57;5.22;;;18.20;30.00;;;;;;5171160;27;46872;-15
2022/03/23 01:51:56;;;;;;;5.55;4.70;;;18.20;30.00;;;;;;5170485;27;49529;-15
2022/03/23 01:54:23;;;;;;;7.78;5.55;;;18.20;30.00;;;;;;5170564;27;46926;-15
2022/03/23 01:56:50;;;;;;;7.07;5.43;;;18.20;30.00;;;;;;5170611;27;46803;-15
2022/03/23 01:59:17;;;;;;;7.22;5.05;;;18.20;30.00;;;;;;5170984;27;46840;-15
2022/03/23 02:01:43;;;;;;;6.97;4.75;;;18.10;30.00;;;;;;5170449;27;47930;-15
2022/03/23 02:04:10;;;;;;;7.35;5.10;;;18.10;30.00;;;;;;5170559;27;47393;-14
2022/03/23 02:06:37;;;;;;;8.32;5.28;;;18.10;30.00;;;;;;5170650;27;46867;-14
2022/03/23 02:09:05;;;;;;;6.03;4.85;;;18.10;30.00;;;;;;5170770;27;46809;-14
2022/03/23 02:11:32;;;;;;;7.93;5.18;;;18.10;30.00;;;;;;5170242;27;47877;-14
2022/03/23 02:13:59;;;;;;;7.97;5.68;;;18.10;30.00;;;;;;5170514;27;47441;-15
2022/03/23 02:16:26;;;;;;;8.63;4.82;;;18.10;30.00;;;;;;5170313;27;46994;-14
2022/03/23 02:18:52;;;;;;;7.88;4.90;;;18.10;30.00;;;;;;5170582;27;46908;-15
2022/03/23 02:21:19;;;;;;;7.55;4.93;;;18.10;30.10;;;;;;5170117;27;49029;-15
2022/03/23 02:23:47;;;;;;;6.82;5.03;;;18.10;30.10;;;;;;5169742;27;46979;-15
2022/03/23 02:26:14;;;;;;;8.38;5.55;;;18.00;30.10;;;;;;5170472;27;47029;-14
2022/03/23 02:28:41;;;;;;;7.82;5.13;;;18.00;30.10;;;;;;5170363;27;46791;-14
2022/03/23 02:31:08;;;;;;;8.13;5.50;;;18.00;30.20;;;;;;5170447;27;48212;-14
2022/03/23 02:33:34;;;;;;;6.63;5.43;;;18.00;30.20;;;;;;5170124;27;46894;-15
2022/03/23 02:36:01;;;;;;;6.78;5.80;;;18.00;30.20;;;;;;5169978;27;46824;-15
2022/03/23 02:38:29;;;;;;;7.15;4.80;;;18.00;30.20;;;;;;5170250;27;47339;-14
2022/03/23 02:40:57;;;;;;;7.55;5.15;;;18.00;30.20;;;;;;5169733;27;48215;-15
2022/03/23 02:43:23;;;;;;;8.52;5.38;;;18.00;30.30;;;;;;5169647;27;46991;-14
2022/03/23 02:45:50;;;;;;;7.55;5.60;;;17.90;30.10;;;;;;5170007;27;46833;-15
2022/03/23 02:48:17;;;;;;;6.85;5.53;;;17.90;30.20;;;;;;5170037;27;46959;-14
2022/03/23 02:50:44;;;;;;;6.90;5.28;;;17.90;30.20;;;;;;5169945;27;48908;-14
2022/03/23 03:04:15;;;;;;;8.65;5.38;;;17.90;30.30;;;;;;5169647;27;46844;-15
2022/03/23 03:06:41;;;;;;;5.75;4.93;;;17.90;30.30;;;;;;5169799;27;46819;-15
2022/03/23 03:09:08;;;;;;;7.25;4.82;;;17.80;30.30;;;;;;5169763;27;47303;-14
2022/03/23 03:11:36;;;;;;;7.43;5.20;;;17.80;30.30;;;;;;5169568;27;48135;-15
2022/03/23 03:14:03;;;;;;;8.10;5.10;;;17.80;30.30;;;;;;5169379;27;47295;-14
2022/03/23 03:16:30;;;;;;;7.35;5.28;;;17.80;30.30;;;;;;5169560;27;46786;-15
2022/03/23 03:18:56;;;;;;;7.95;5.15;;;17.80;30.40;;;;;;5169588;27;47000;-14
2022/03/23 03:21:23;;;;;;;7.97;5.70;;;17.70;30.30;;;;;;5169038;27;47822;-15
2022/03/23 03:23:50;;;;;;;6.32;4.72;;;17.70;30.30;;;;;;5169292;27;46941;-15
2022/03/23 03:26:17;;;;;;;6.30;4.78;;;17.70;30.30;;;;;;5169357;27;46789;-15
2022/03/23 03:28:45;;;;;;;8.90;5.28;;;17.70;30.40;;;;;;5169370;27;46884;-14
2022/03/23 03:31:13;;;;;;;7.18;5.10;;;17.70;30.40;;;;;;5169180;27;48237;-15
2022/03/23 03:33:40;;;;;;;5.55;4.88;;;17.70;30.40;;;;;;5169029;27;46870;-15
2022/03/23 03:36:07;;;;;;;7.22;4.38;;;17.70;30.30;;;;;;5168020;27;46999;-15
2022/03/23 03:38:34;;;;;;;6.78;4.88;;;17.70;30.30;;;;;;5169266;27;47302;-16
2022/03/23 03:41:02;;;;;;;5.57;4.43;;;17.70;30.30;;;;;;5169011;27;47325;-14
2022/03/23 03:43:28;;;;;;;5.32;4.53;;;17.70;30.40;;;;;;5168688;27;47582;-14
2022/03/23 03:45:56;;;;;;;6.47;4.40;;;17.70;30.40;;;;;;5168806;27;46968;-15
2022/03/23 03:48:23;;;;;;;6.40;4.55;;;17.70;30.40;;;;;;5169216;27;46841;-14
2022/03/23 03:50:50;;;;;;;5.28;4.50;;;17.60;30.40;;;;;;5168968;27;47814;-14
2022/03/23 03:53:17;;;;;;;5.88;4.60;;;17.60;31.00;;;;;;5168437;27;47157;-15
2022/03/23 03:55:44;;;;;;;6.30;4.70;;;17.60;30.40;;;;;;5168791;27;46878;-15
2022/03/23 03:58:12;;;;;;;6.75;4.90;;;17.60;30.50;;;;;;5168643;27;46898;-14
2022/03/23 04:00:39;;;;;;;6.00;4.65;;;17.60;30.50;;;;;;5168448;27;48019;-14
2022/03/23 04:03:07;;;;;;;6.28;4.47;;;17.60;30.50;;;;;;5168594;27;46844;-14
2022/03/23 04:05:34;;;;;;;6.28;4.75;;;17.60;30.50;;;;;;5168763;27;47052;-14
2022/03/23 04:08:01;;;;;;;5.22;4.72;;;17.60;30.40;;;;;;5168826;27;46922;-15
2022/03/23 04:10:27;;;;;;;5.25;4.32;;;17.60;30.50;;;;;;5168403;27;47075;-15
2022/03/23 04:12:54;;;;;;;6.20;4.75;;;17.50;30.40;;;;;;5168287;27;47276;-14
2022/03/23 04:15:21;;;;;;;5.70;4.57;;;17.50;30.50;;;;;;5168691;27;46864;-14
2022/03/23 04:17:48;;;;;;;5.78;4.72;;;17.50;30.50;;;;;;5168517;27;46851;-14
2022/03/23 04:20:16;;;;;;;4.88;4.25;;;17.50;30.50;;;;;;5168496;27;47871;-15
2022/03/23 04:22:42;;;;;;;6.13;4.30;;;17.50;30.50;;;;;;5168315;27;46755;-14
2022/03/23 04:25:10;;;;;;;5.82;4.50;;;17.40;30.50;;;;;;5168541;27;46893;-14
2022/03/23 04:27:45;;;;;;;6.85;4.65;;;17.50;30.50;;;;;;5168396;27;47000;-14
2022/03/23 04:30:13;;;;;;;5.38;4.25;;;17.40;30.50;;;;;;5168195;27;48225;-15
2022/03/23 04:32:39;;;;;;;6.18;4.47;;;17.40;30.60;;;;;;5168000;27;46914;-14
2022/03/23 04:35:06;;;;;;;6.38;4.72;;;17.40;30.60;;;;;;5168110;27;46929;-15
2022/03/23 04:37:34;;;;;;;5.32;4.28;;;17.40;30.60;;;;;;5168473;27;46792;-16
2022/03/23 04:40:01;;;;;;;4.65;4.20;;;17.40;30.60;;;;;;5167910;27;47959;-15
2022/03/23 04:42:28;;;;;;;6.30;4.53;;;17.40;30.60;;;;;;5167767;27;47010;-14
2022/03/23 04:44:55;;;;;;;5.65;4.32;;;17.40;30.70;;;;;;5168318;27;47034;-14
2022/03/23 04:47:21;;;;;;;5.53;4.40;;;17.40;30.70;;;;;;5170376;27;46923;-15
2022/03/23 04:49:48;;;;;;;5.07;3.97;;;17.40;31.30;;;;;;5171899;27;48332;-14
2022/03/23 04:52:16;;;;;;;5.15;4.22;;;17.40;30.70;;;;;;5171708;27;46887;-15
2022/03/23 04:54:44;;;;;;;6.50;4.40;;;17.40;30.70;;;;;;5171621;27;46938;-14
2022/03/23 04:57:11;;;;;;;5.65;4.38;;;17.40;30.70;;;;;;5171951;27;47084;-14
2022/03/23 04:59:38;;;;;;;4.75;4.20;;;17.30;30.70;;;;;;5171737;27;47078;-15
2022/03/23 05:02:05;;;;;;;5.10;4.18;;;17.30;30.70;;;;;;5171751;27;47327;-14
2022/03/23 05:04:32;;;;;;;5.40;4.25;;;17.30;30.70;;;;;;5171766;27;46906;-15
2022/03/23 05:06:58;;;;;;;6.40;4.45;;;17.30;30.60;;;;;;5171760;27;46962;-14
2022/03/23 05:09:25;;;;;;;4.70;4.10;;;17.30;30.70;;;;;;5171246;27;47790;-14
2022/03/23 05:11:53;;;;;;;6.28;4.20;;;17.30;30.70;;;;;;5171555;27;46876;-14
2022/03/23 05:14:20;;;;;;;8.05;4.22;;;17.30;30.70;;;;;;5171260;27;46833;-14
2022/03/23 05:16:46;;;;;;;5.63;4.10;;;17.30;30.70;;;;;;5171522;27;46891;-14
2022/03/23 05:19:13;;;;;;;4.93;4.05;;;17.30;30.70;;;;;;5171176;27;48709;-15
2022/03/23 05:21:40;;;;;;;5.95;4.20;;;17.30;30.70;;;;;;5171458;27;46896;-14
2022/03/23 05:24:07;;;;;;;4.63;4.07;;;17.20;30.70;;;;;;5171281;27;46992;-14
2022/03/23 05:26:34;;;;;;;5.03;4.47;;;17.20;30.70;;;;;;5171144;27;46913;-15
2022/03/23 05:29:02;;;;;;;5.05;4.03;;;17.20;30.70;;;;;;5171140;27;49124;-15
2022/03/23 05:31:29;;;;;;;5.38;4.05;;;17.20;30.70;;;;;;5171264;27;47017;-14
2022/03/23 05:33:56;;;;;;;5.15;4.05;;;17.20;30.70;;;;;;5170823;27;46814;-14
2022/03/23 05:36:22;;;;;;;4.20;3.78;;;17.20;30.70;;;;;;5171101;27;46887;-14
2022/03/23 05:38:49;;;;;;;6.55;4.30;;;17.20;30.70;;;;;;5170943;27;46840;-14
2022/03/23 05:41:16;;;;;;;4.43;3.83;;;17.20;30.80;;;;;;5171065;27;47417;-15
2022/03/23 05:43:42;;;;;;;5.93;3.80;;;17.20;30.70;;;;;;5170854;27;46986;-15
2022/03/23 05:46:10;;;;;;;5.15;4.10;;;17.20;30.70;;;;;;5171303;27;46855;-14
2022/03/23 05:48:37;;;;;;;8.63;4.70;;;17.20;30.80;;;;;;5170687;27;48094;-14
2022/03/23 05:51:04;;;;;;;5.63;4.40;;;17.20;30.70;;;;;;5170600;27;46804;-14
2022/03/23 05:53:31;;;;;;;7.32;4.38;;;17.10;30.70;;;;;;5170490;27;47056;-15
2022/03/23 05:55:58;;;;;;;4.85;4.35;;;17.20;30.80;;;;;;5171120;27;47076;-14
2022/03/23 05:58:24;;;;;;;6.03;4.45;;;17.10;30.70;;;;;;5169453;27;48152;-14
2022/03/23 06:00:51;;;;;;;4.90;4.10;;;17.10;30.70;;;;;;5170791;27;46893;-14
2022/03/23 06:03:19;;;;;;;5.85;4.38;;;17.10;30.70;;;;;;5170522;27;46907;-14
2022/03/23 06:05:46;;;;;;;5.43;4.22;;;17.10;30.70;;;;;;5170949;27;47063;-14
2022/03/23 06:08:13;;;;;;;5.20;4.10;;;17.10;30.70;;;;;;5170019;27;48799;-15
2022/03/23 06:10:40;;;;;;;5.40;3.70;;;17.10;30.80;;;;;;5170662;27;46958;-14
2022/03/23 06:13:06;;;;;;;4.93;4.18;;;17.10;30.70;;;;;;5169560;27;46871;-14
2022/03/23 06:15:33;;;;;;;6.80;4.70;;;17.10;30.70;;;;;;5170643;27;47259;-14
2022/03/23 06:18:00;;;;;;;5.43;4.20;;;17.10;30.80;;;;;;5170139;27;48026;-14
2022/03/23 06:20:28;;;;;;;5.60;4.22;;;17.10;30.70;;;;;;5170417;27;47391;-15
2022/03/23 06:22:55;;;;;;;5.72;4.35;;;17.10;30.70;;;;;;5170300;27;46944;-15
2022/03/23 06:25:21;;;;;;;6.60;4.55;;;17.10;30.70;;;;;;5170535;27;47292;-14
2022/03/23 06:27:48;;;;;;;5.25;4.70;;;17.10;30.80;;;;;;5170173;27;48842;-14
2022/03/23 06:30:15;;;;;;;6.70;4.05;;;17.10;30.80;;;;;;5170001;27;46805;-14
2022/03/23 06:32:42;;;;;;;5.38;4.43;;;17.10;30.80;;;;;;5169923;27;46777;-14
2022/03/23 06:35:08;;;;;;;5.50;4.10;;;17.10;30.90;;;;;;5170124;27;46948;-14
2022/03/23 06:37:37;;;;;;;4.50;4.07;;;17.10;31.40;;;;;;5169901;27;48775;-14
2022/03/23 06:40:04;;;;;;;5.47;4.30;;;17.20;30.90;;;;;;5170109;27;46863;-14
2022/03/23 06:42:31;;;;;;;5.00;4.10;;;17.20;30.80;;;;;;5169961;27;46802;-14
2022/03/23 06:44:57;;;;;;;5.13;4.15;;;17.20;30.80;;;;;;5170026;27;47215;-15
2022/03/23 06:47:24;;;;;;;4.68;4.13;;;17.20;30.90;;;;;;5169348;27;48718;-14
2022/03/23 06:49:51;;;;;;;6.10;4.57;;;17.20;30.80;;;;;;5169272;27;46913;-14
2022/03/23 06:52:18;;;;;;;6.43;4.30;;;17.30;30.80;;;;;;5169218;27;46913;-14
2022/03/23 06:54:46;;;;;;;7.30;4.10;;;17.30;30.80;;;;;;5169918;27;47252;-14
2022/03/23 06:57:13;;;;;;;6.65;4.25;;;17.30;30.80;;;;;;5169537;27;47039;-15
2022/03/23 06:59:40;;;;;;;5.15;4.53;;;17.30;30.80;;;;;;5169426;27;47054;-15
2022/03/23 07:02:08;;;;;;;6.18;4.28;;;17.30;30.70;;;;;;5169222;27;46914;-15
2022/03/23 07:04:35;;;;;;;4.97;4.47;;;17.30;30.70;;;;;;5170534;27;46813;-23
2022/03/23 07:07:02;;;;;;;6.50;4.15;;;17.30;30.70;;;;;;5168720;27;47097;-23
2022/03/23 07:09:38;;;;;;;7.32;4.47;;;17.30;30.60;;;;;;5168074;27;46944;-22
2022/03/23 07:12:07;;;;;;;5.68;4.03;;;17.40;30.80;;;;;;5169296;27;46948;-22
2022/03/23 07:14:34;;;;;;;5.75;4.05;;;17.40;30.80;;;;;;5169547;27;46813;-15
2022/03/23 07:17:01;;;;;;;5.80;4.50;;;17.40;30.80;;;;;;5169502;27;46907;-22
2022/03/23 07:19:28;;;;;;;5.25;4.18;;;17.40;30.80;;;;;;5169454;27;46881;-23
2022/03/23 07:21:55;;;;;;;4.90;4.28;;;17.40;30.80;;;;;;5169347;27;46891;-22
2022/03/23 07:24:22;;;;;;;6.03;4.00;;;17.40;30.80;;;;;;5169674;27;46900;-22
2022/03/23 07:26:48;;;;;;;6.40;4.80;;;17.40;30.80;;;;;;5169279;27;49037;-22
2022/03/23 07:29:16;;;;;;;4.63;3.75;;;17.40;30.80;;;;;;5169239;27;46866;-22
2022/03/23 07:31:45;;;;;;;5.53;4.03;;;17.40;30.80;;;;;;5168945;27;46830;-23
2022/03/23 07:34:13;;;;;;;5.93;4.05;;;17.40;30.60;;;;;;5168794;27;46955;-15
2022/03/23 07:36:40;;;;;;;5.60;4.10;;;17.40;30.70;;;;;;5168762;27;47932;-15
2022/03/23 07:39:07;;;;;;;5.78;4.18;;;17.50;30.80;;;;;;5168909;27;46865;-15
2022/03/23 07:41:34;;;;;;;6.40;4.20;;;17.50;30.70;;;;;;5169220;27;47148;-15
2022/03/23 07:44:01;;;;;;;5.53;4.05;;;17.50;30.60;;;;;;5167983;27;46817;-15
2022/03/23 07:46:30;;;;;;;5.38;4.25;;;17.50;30.70;;;;;;5168513;27;46970;-15
2022/03/23 07:48:57;;;;;;;4.78;4.15;;;17.50;30.60;;;;;;5167001;27;46867;-15
2022/03/23 07:51:24;;;;;;;5.70;4.35;;;17.50;30.60;;;;;;5168389;27;47036;-16
2022/03/23 07:53:51;;;;;;;4.43;4.03;;;17.60;30.60;;;;;;5162015;27;46957;-14
2022/03/23 07:56:18;;;;;;;8.32;4.75;;;17.60;30.90;;;;;;5158917;27;48872;-16
2022/03/23 07:58:44;;;;;;;5.65;4.32;;;17.60;31.60;;;;;;5168714;27;46857;-15
2022/03/23 08:01:11;;;;;;;8.35;4.20;;;17.60;32.50;;;;;;5168218;27;46948;-16
2022/03/23 08:03:41;;;;;;;11.15;4.65;;;17.60;33.20;;;;;;5150029;27;47122;-15
2022/03/23 08:06:08;;;;;;;10.40;4.47;;;17.60;33.10;;;;;;5147703;27;46937;-14
2022/03/23 08:08:35;;;;;;;9.93;4.65;;;17.70;34.00;;;;;;5146341;27;46943;-16
2022/03/23 08:11:01;;;;;;;6.40;4.10;;;17.80;34.00;;;;;;5146917;27;46966;-15
2022/03/23 08:13:28;;;;;;;7.25;4.47;;;17.90;33.20;;;;;;5153696;27;46861;-16
2022/03/23 08:15:56;;;;;;;8.43;3.90;;;17.90;32.60;;;;;;5166496;27;46994;-16
2022/03/23 08:18:23;;;;;;;5.60;4.28;;;17.90;32.10;;;;;;5167459;27;46950;-15
2022/03/23 08:20:51;;;;;;;7.03;4.35;;;18.00;31.80;;;;;;5149959;27;46987;-15
2022/03/23 08:23:19;;;;;;;6.68;4.35;;;18.00;31.80;;;;;;5147326;27;46942;-15
2022/03/23 08:25:46;;;;;;;8.07;4.60;;;18.10;31.60;;;;;;5147150;27;46924;-16
2022/03/23 08:28:14;;;;;;;8.90;4.30;;;18.20;31.30;;;;;;5146894;27;46935;-15
2022/03/23 08:30:41;;;;;;;10.10;4.50;;;18.30;31.20;;;;;;5159015;27;46934;-16
2022/03/23 08:33:08;;;;;;;10.40;4.93;;;18.30;31.10;;;;;;5168329;27;46796;-15
2022/03/23 08:35:35;;;;;;;5.82;4.85;;;18.40;31.00;;;;;;5168019;27;47983;-15
2022/03/23 08:38:03;;;;;;;10.38;4.85;;;18.40;30.90;;;;;;5166443;27;46959;-15
2022/03/23 08:40:30;;;;;;;7.22;4.63;;;18.40;31.20;;;;;;5166771;27;47276;-15
2022/03/23 08:42:58;;;;;;;8.13;4.95;;;18.50;30.90;;;;;;5161133;27;46856;-16
2022/03/23 08:45:25;;;;;;;7.95;5.55;;;18.50;30.90;;;;;;5148387;27;48111;-17
2022/03/23 08:47:52;;;;;;;6.72;5.30;;;18.50;30.80;;;;;;5157355;27;47217;-15
2022/03/23 08:50:19;;;;;;;11.75;6.40;;;18.60;30.70;;;;;;5155114;27;46924;-15
2022/03/23 08:52:45;;;;;;;12.27;7.35;;;18.60;30.40;;;;;;5164738;27;47021;-16
2022/03/23 08:55:17;;;;;;;10.93;7.90;;;18.60;30.10;;;;;;5161898;27;49081;-15
2022/03/23 08:57:44;;;;;;;15.30;7.55;;;18.70;30.10;;;;;;5165471;27;47142;-14
2022/03/23 09:00:12;;;;;;;10.88;7.90;;;18.60;30.10;;;;;;5161417;27;47171;-16
2022/03/23 09:02:39;;;;;;;10.70;7.55;;;18.60;29.90;;;;;;5159569;27;47126;-15
2022/03/23 09:05:09;;;;;;;11.30;7.88;;;18.60;30.00;;;;;;5145597;27;47940;-15
2022/03/23 09:07:36;;;;;;;13.45;8.10;;;18.60;30.10;;;;;;5146781;27;46946;-15
2022/03/23 09:10:03;;;;;;;13.57;7.70;;;18.60;30.10;;;;;;5147350;27;46946;-15
2022/03/23 09:12:31;;;;;;;12.35;7.50;;;18.50;30.30;;;;;;5145177;27;46948;-15
2022/03/23 09:14:58;;;;;;;13.55;7.63;;;18.50;30.30;;;;;;5145705;27;47077;-15
2022/03/23 09:17:25;;;;;;;11.32;7.20;;;18.50;30.30;;;;;;5153589;27;47306;-15
2022/03/23 09:19:51;;;;;;;10.20;7.60;;;18.50;30.60;;;;;;5153477;27;47061;-14
2022/03/23 09:22:18;;;;;;;11.23;7.20;;;18.50;30.70;;;;;;5161294;27;48515;-16
2022/03/23 09:24:46;;;;;;;10.35;7.20;;;18.50;30.60;;;;;;5151473;27;47222;-14
2022/03/23 09:27:15;;;;;;;9.50;7.65;;;18.50;30.60;;;;;;5151659;27;47694;-21
2022/03/23 09:29:45;;;;;;;8.95;6.85;;;18.50;30.50;;;;;;5156278;27;46930;-15
2022/03/23 09:32:12;;;;;;;10.50;6.78;;;18.50;30.40;;;;;;5152506;27;47028;-22
2022/03/23 09:34:39;;;;;;;14.65;7.32;;;18.60;30.60;;;;;;5161270;27;47884;-22
2022/03/23 09:39:51;;;;;;;11.98;7.70;;;18.70;30.30;;;;;;5155637;27;47115;-21
2022/03/23 09:42:18;;;;;;;12.05;7.15;;;18.70;30.40;;;;;;5151398;27;46927;-22
2022/03/23 09:44:48;;;;;;;11.45;7.38;;;18.70;30.20;;;;;;5147503;27;48069;-21
2022/03/23 09:47:15;;;;;;;9.38;7.50;;;18.70;30.10;;;;;;5156115;27;47472;-22
2022/03/23 09:49:42;;;;;;;15.52;7.40;;;18.70;30.10;;;;;;5158384;27;46832;-22
2022/03/23 09:52:08;;;;;;;11.68;7.70;;;18.70;30.10;;;;;;5149782;27;46734;-22
2022/03/23 09:54:35;;;;;;;14.82;8.23;;;18.70;30.00;;;;;;5150852;27;48006;-22
2022/03/23 09:57:02;;;;;;;11.27;7.15;;;18.70;30.00;;;;;;5159146;27;46984;-22
2022/03/23 09:59:29;;;;;;;12.50;7.10;;;18.70;29.90;;;;;;5164280;27;47144;-22
2022/03/23 10:02:26;;;;;;;12.48;7.40;;;18.70;30.30;;;;;;5170730;27;47027;-22
2022/03/23 10:05:44;;;;;;;13.23;7.03;;;18.80;30.00;;;;;;5147500;27;47854;-21
2022/03/23 10:08:54;;;;;;;12.02;7.05;;;18.80;29.90;;;;;;5160751;27;47609;-21
2022/03/23 10:11:55;;;;;;;11.55;7.38;;;18.80;29.90;;;;;;5168419;27;47048;-21
2022/03/23 10:14:55;;;;;;;11.43;7.28;;;18.80;29.70;;;;;;5164416;27;47268;-22
2022/03/23 10:17:58;;;;;;;10.75;7.05;;;18.90;29.50;;;;;;5153576;27;47837;-15
2022/03/23 10:20:25;;;;;;;11.95;7.03;;;18.90;29.60;;;;;;5149265;27;47070;-14
2022/03/23 10:22:53;;;;;;;12.35;8.40;;;18.90;29.70;;;;;;5154370;27;47136;-14
2022/03/23 10:25:20;;;;;;;12.88;8.50;;;18.90;29.40;;;;;;5166169;27;47097;-15
2022/03/23 10:27:49;;;;;;;10.77;7.57;;;18.90;29.40;;;;;;5163796;27;47086;-14
2022/03/23 10:30:16;;;;;;;12.80;7.82;;;19.00;29.40;;;;;;5157661;27;47025;-15
2022/03/23 10:32:43;;;;;;;10.48;7.18;;;19.00;29.30;;;;;;5154467;27;46963;-14
2022/03/23 10:35:13;;;;;;;12.02;7.47;;;19.00;29.30;;;;;;5161433;27;46935;-14
2022/03/23 10:37:39;;;;;;;11.43;7.80;;;19.10;29.40;;;;;;5157995;27;46990;-14
2022/03/23 10:40:08;;;;;;;12.13;8.00;;;19.10;29.40;;;;;;5152151;27;47230;-14
2022/03/23 10:42:35;;;;;;;14.50;8.55;;;19.10;29.50;;;;;;5161950;27;46969;-14
2022/03/23 10:45:08;;;;;;;11.82;8.52;;;19.20;29.60;;;;;;5157570;27;46920;-14
2022/03/23 10:47:35;;;;;;;14.75;8.85;;;19.20;29.60;;;;;;5159495;27;47191;-14
2022/03/23 10:50:15;;;;;;;20.38;8.80;;;19.20;29.50;;;;;;5161170;27;47043;-14
2022/03/23 10:52:53;;;;;;;13.60;8.20;;;19.30;29.60;;;;;;5151398;27;47615;-14
2022/03/23 10:55:21;;;;;;;16.58;9.07;;;19.30;29.70;;;;;;5148904;27;47304;-14
2022/03/23 10:58:25;;;;;;;13.05;8.30;;;19.40;29.70;;;;;;5147563;27;47845;-14
2022/03/23 11:00:56;;;;;;;15.38;8.60;;;19.40;29.50;;;;;;5149171;27;46959;-13
2022/03/23 11:03:37;;;;;;;15.60;8.23;;;19.50;29.60;;;;;;5159920;27;47020;-14
2022/03/23 11:06:05;;;;;;;12.73;8.70;;;19.60;29.30;;;;;;5148329;27;47204;-14
2022/03/23 11:08:32;;;;;;;13.80;8.93;;;19.60;29.10;;;;;;5164700;27;49064;-15
2022/03/23 11:16:30;;;;;;;23.20;9.23;;;19.70;28.80;;;;;;5164096;27;46750;-14
2022/03/23 11:18:58;;;;;;;13.95;8.85;;;19.80;29.10;;;;;;5168564;27;48736;-15
2022/03/23 11:21:25;;;;;;;11.98;8.80;;;19.90;28.70;;;;;;5168940;27;46945;-14
2022/03/23 11:23:51;;;;;;;13.90;9.35;;;20.00;28.50;;;;;;5166778;27;47021;-14
2022/03/23 11:26:19;;;;;;;16.42;9.88;;;20.10;28.40;;;;;;5168627;27;46984;-14
2022/03/23 11:28:46;;;;;;;13.05;8.45;;;20.20;28.30;;;;;;5153673;27;48844;-14
2022/03/23 11:31:15;;;;;;;14.82;8.63;;;20.30;28.60;;;;;;5168659;27;46984;-14
2022/03/23 11:33:44;;;;;;;10.70;8.02;;;20.50;28.50;;;;;;5168055;27;46807;-15
2022/03/23 11:36:11;;;;;;;13.80;7.97;;;20.70;28.50;;;;;;5150719;27;46932;-14
2022/03/23 11:38:38;;;;;;;12.52;7.53;;;20.90;28.40;;;;;;5153925;27;47927;-15
2022/03/23 11:41:05;;;;;;;15.07;8.45;;;21.00;28.30;;;;;;5148958;27;46943;-14
2022/03/23 11:43:33;;;;;;;11.20;7.82;;;21.10;28.40;;;;;;5153718;27;46780;-15
2022/03/23 11:46:00;;;;;;;13.15;6.28;;;21.30;28.40;;;;;;5165386;27;47307;-21
2022/03/23 11:48:34;;;;;;;10.88;7.03;;;21.40;28.40;;;;;;5158473;27;48035;-21
2022/03/23 11:51:14;;;;;;;13.57;6.63;;;21.50;28.40;;;;;;5158844;27;47291;-21
2022/03/23 11:53:47;;;;;;;12.30;7.00;;;21.60;28.30;;;;;;5163365;27;47017;-22
2022/03/23 11:56:14;;;;;;;10.18;6.60;;;21.70;28.40;;;;;;5162511;27;46943;-20
2022/03/23 11:58:41;;;;;;;12.98;6.20;;;21.80;28.20;;;;;;5152056;27;47048;-21
2022/03/23 12:01:09;;;;;;;11.27;6.03;;;21.90;28.20;;;;;;5160263;27;46958;-22
2022/03/23 12:04:04;;;;;;;8.93;6.32;;;22.00;28.00;;;;;;5166967;27;46830;-21
2022/03/23 12:06:41;;;;;;;8.48;6.13;;;22.10;27.90;;;;;;5136385;27;46770;-21
2022/03/23 12:09:08;;;;;;;10.00;6.32;;;22.30;27.90;;;;;;5162915;27;46977;-22
2022/03/23 12:11:49;;;;;;;15.13;6.70;;;22.30;27.70;;;;;;5167729;27;46919;-22
2022/03/23 12:14:26;;;;;;;8.52;6.10;;;22.40;27.80;;;;;;5167459;27;46873;-15
2022/03/23 12:17:10;;;;;;;9.45;6.90;;;22.60;27.80;;;;;;5168088;27;46928;-15
2022/03/23 12:19:54;;;;;;;9.30;6.57;;;22.60;27.70;;;;;;5167065;27;47794;-15
2022/03/23 12:22:49;;;;;;;10.55;6.10;;;22.70;27.70;;;;;;5166138;27;47069;-21
2022/03/23 12:25:21;;;;;;;13.70;8.82;;;22.80;27.60;;;;;;5161920;27;47274;-22
2022/03/23 12:27:51;;;;;;;17.23;9.40;;;22.80;26.80;;;;;;5152959;27;47022;-21
2022/03/23 12:30:19;;;;;;;17.55;10.80;;;22.80;26.40;;;;;;5160355;27;49114;-22
2022/03/23 12:32:46;;;;;;;13.68;10.55;;;22.70;26.10;;;;;;5145732;27;46982;-21
2022/03/23 12:35:13;;;;;;;15.93;11.15;;;22.60;26.10;;;;;;5144890;27;47169;-21
2022/03/23 12:37:42;;;;;;;16.02;10.77;;;22.60;26.10;;;;;;5159663;27;47171;-21
2022/03/23 12:40:10;;;;;;;17.38;12.73;;;22.70;26.30;;;;;;5165726;27;48382;-21
2022/03/23 12:42:41;;;;;;;18.15;13.00;;;22.70;25.90;;;;;;5164182;27;47109;-21
2022/03/23 12:45:11;;;;;;;18.52;11.60;;;22.70;25.80;;;;;;5146305;27;46883;-21
2022/03/23 12:47:39;;;;;;;15.07;11.57;;;22.70;26.00;;;;;;5163113;27;47676;-22
2022/03/23 12:58:33;;;;;;;17.63;12.02;;;23.00;25.70;;;;;;5145912;27;47050;-16
2022/03/23 13:01:10;;;;;;;16.55;11.80;;;23.10;25.60;;;;;;5166380;27;47085;-15
2022/03/23 13:03:53;;;;;;;14.57;11.73;;;23.00;25.20;;;;;;5167290;27;46966;-16
2022/03/23 13:06:20;;;;;;;18.25;11.57;;;23.10;25.30;;;;;;5167574;27;46954;-16
2022/03/23 13:08:48;;;;;;;18.33;12.00;;;23.10;25.20;;;;;;5151648;27;47213;-16
2022/03/23 13:11:18;;;;;;;18.75;13.00;;;23.10;25.00;;;;;;5154887;27;46870;-17
2022/03/23 13:13:46;;;;;;;16.75;12.70;;;23.10;25.00;;;;;;5165002;27;47092;-17
2022/03/23 13:16:14;;;;;;;14.70;11.68;;;23.20;25.00;;;;;;5150079;27;46837;-16
2022/03/23 13:18:40;;;;;;;17.48;11.90;;;23.10;25.00;;;;;;5161639;27;47332;-16